createdAt,value
2018-05-15T00:00:05.077Z,1007.01
2018-05-15T00:01:05.091Z,1007.00
2018-05-15T00:02:05.113Z,1007.03
2018-05-15T00:03:05.130Z,1007.02
2018-05-15T00:04:05.148Z,1007.04
2018-05-15T00:05:05.170Z,1007.04
2018-05-15T00:06:05.191Z,1007.06
2018-05-15T00:07:05.212Z,1007.03
2018-05-15T00:08:05.230Z,1007.04
2018-05-15T00:09:05.254Z,1007.02
2018-05-15T00:10:05.272Z,1007.05
2018-05-15T00:11:05.289Z,1007.05
2018-05-15T00:12:05.311Z,1007.05
2018-05-15T00:13:05.329Z,1007.06
2018-05-15T00:14:05.348Z,1007.07
2018-05-15T00:15:05.367Z,1007.09
2018-05-15T00:16:05.416Z,1007.10
2018-05-15T00:17:05.411Z,1007.09
2018-05-15T00:18:05.428Z,1007.10
2018-05-15T00:19:05.448Z,1007.13
2018-05-15T00:20:05.469Z,1007.10
2018-05-15T00:21:05.487Z,1007.08
2018-05-15T00:22:05.508Z,1007.13
2018-05-15T00:23:05.526Z,1007.14
2018-05-15T00:24:05.553Z,1007.15
2018-05-15T00:25:05.566Z,1007.15
2018-05-15T00:26:05.587Z,1007.22
2018-05-15T00:27:05.600Z,1007.18
2018-05-15T00:28:05.656Z,1007.16
2018-05-15T00:29:05.649Z,1007.16
2018-05-15T00:30:05.666Z,1007.17
2018-05-15T00:31:05.690Z,1007.20
2018-05-15T00:32:05.727Z,1007.20
2018-05-15T00:33:05.721Z,1007.19
2018-05-15T00:34:05.748Z,1007.16
2018-05-15T00:35:05.769Z,1007.20
2018-05-15T00:36:05.784Z,1007.26
2018-05-15T00:37:05.804Z,1007.22
2018-05-15T00:38:05.824Z,1007.24
2018-05-15T00:39:05.848Z,1007.27
2018-05-15T00:40:05.867Z,1007.31
2018-05-15T00:41:05.883Z,1007.28
2018-05-15T00:42:05.904Z,1007.30
2018-05-15T00:43:05.921Z,1007.33
2018-05-15T00:44:05.949Z,1007.35
2018-05-15T00:45:05.962Z,1007.35
2018-05-15T00:46:05.983Z,1007.34
2018-05-15T00:47:06.001Z,1007.32
2018-05-15T00:48:06.025Z,1007.37
2018-05-15T00:49:06.043Z,1007.35
2018-05-15T00:50:06.062Z,1007.37
2018-05-15T00:51:06.080Z,1007.41
2018-05-15T00:52:06.100Z,1007.37
2018-05-15T00:53:06.121Z,1007.39
2018-05-15T00:54:06.140Z,1007.34
2018-05-15T00:55:06.158Z,1007.39
2018-05-15T00:56:06.182Z,1007.41
2018-05-15T00:57:06.199Z,1007.42
2018-05-15T00:58:06.219Z,1007.42
2018-05-15T00:59:06.239Z,1007.41
2018-05-15T01:00:06.259Z,1007.44
2018-05-15T01:01:06.280Z,1007.41
2018-05-15T01:02:06.301Z,1007.43
2018-05-15T01:03:06.317Z,1007.44
2018-05-15T01:04:06.341Z,1007.45
2018-05-15T01:05:06.358Z,1007.47
2018-05-15T01:06:06.378Z,1007.45
2018-05-15T01:07:06.397Z,1007.48
2018-05-15T01:08:06.416Z,1007.48
2018-05-15T01:09:06.439Z,1007.46
2018-05-15T01:10:06.455Z,1007.50
2018-05-15T01:11:06.476Z,1007.50
2018-05-15T01:12:06.496Z,1007.51
2018-05-15T01:13:06.518Z,1007.53
2018-05-15T01:14:06.536Z,1007.51
2018-05-15T01:15:06.556Z,1007.51
2018-05-15T01:16:06.573Z,1007.53
2018-05-15T01:17:06.597Z,1007.54
2018-05-15T01:18:06.615Z,1007.50
2018-05-15T01:19:06.633Z,1007.50
2018-05-15T01:20:06.655Z,1007.52
2018-05-15T01:21:06.673Z,1007.53
2018-05-15T01:22:06.695Z,1007.55
2018-05-15T01:23:06.713Z,1007.52
2018-05-15T01:24:06.734Z,1007.55
2018-05-15T01:25:06.753Z,1007.56
2018-05-15T01:26:06.773Z,1007.60
2018-05-15T01:27:06.792Z,1007.58
2018-05-15T01:28:06.813Z,1007.57
2018-05-15T01:29:06.832Z,1007.60
2018-05-15T01:30:06.852Z,1007.64
2018-05-15T01:31:06.872Z,1007.63
2018-05-15T01:32:06.896Z,1007.60
2018-05-15T01:33:06.915Z,1007.58
2018-05-15T01:34:06.933Z,1007.58
2018-05-15T01:35:06.951Z,1007.59
2018-05-15T01:36:06.972Z,1007.60
2018-05-15T01:37:06.994Z,1007.62
2018-05-15T01:38:07.009Z,1007.57
2018-05-15T01:39:07.030Z,1007.57
2018-05-15T01:40:07.051Z,1007.58
2018-05-15T01:41:07.069Z,1007.58
2018-05-15T01:42:07.148Z,1007.57
2018-05-15T01:43:07.108Z,1007.59
2018-05-15T01:44:07.128Z,1007.58
2018-05-15T01:45:07.151Z,1007.54
2018-05-15T01:46:07.168Z,1007.55
2018-05-15T01:47:07.188Z,1007.54
2018-05-15T01:48:07.207Z,1007.54
2018-05-15T01:49:07.230Z,1007.55
2018-05-15T01:50:07.248Z,1007.54
2018-05-15T01:51:07.267Z,1007.56
2018-05-15T01:52:07.289Z,1007.54
2018-05-15T01:53:07.307Z,1007.55
2018-05-15T01:54:07.327Z,1007.55
2018-05-15T01:55:07.344Z,1007.55
2018-05-15T01:56:07.363Z,1007.54
2018-05-15T01:57:07.385Z,1007.56
2018-05-15T01:58:07.413Z,1007.57
2018-05-15T01:59:07.424Z,1007.55
2018-05-15T02:00:07.445Z,1007.57
2018-05-15T02:01:07.464Z,1007.53
2018-05-15T02:02:07.483Z,1007.53
2018-05-15T02:03:07.503Z,1007.56
2018-05-15T02:04:07.523Z,1007.58
2018-05-15T02:05:07.547Z,1007.55
2018-05-15T02:06:07.563Z,1007.52
2018-05-15T02:07:07.582Z,1007.55
2018-05-15T02:08:07.602Z,1007.51
2018-05-15T02:09:07.623Z,1007.50
2018-05-15T02:10:07.645Z,1007.47
2018-05-15T02:11:07.666Z,1007.51
2018-05-15T02:12:07.679Z,1007.48
2018-05-15T02:13:07.701Z,1007.46
2018-05-15T02:14:07.720Z,1007.46
2018-05-15T02:15:07.739Z,1007.44
2018-05-15T02:16:07.823Z,1007.47
2018-05-15T02:17:07.781Z,1007.48
2018-05-15T02:18:07.801Z,1007.45
2018-05-15T02:19:07.818Z,1007.44
2018-05-15T02:20:07.836Z,1007.45
2018-05-15T02:21:07.860Z,1007.44
2018-05-15T02:22:07.877Z,1007.43
2018-05-15T02:23:07.897Z,1007.40
2018-05-15T02:24:07.919Z,1007.41
2018-05-15T02:25:07.937Z,1007.45
2018-05-15T02:26:07.958Z,1007.42
2018-05-15T02:27:07.981Z,1007.43
2018-05-15T02:28:08.002Z,1007.45
2018-05-15T02:29:08.017Z,1007.42
2018-05-15T02:30:08.039Z,1007.51
2018-05-15T02:31:08.054Z,1007.50
2018-05-15T02:32:08.075Z,1007.47
2018-05-15T02:33:08.095Z,1007.48
2018-05-15T02:34:08.117Z,1007.49
2018-05-15T02:35:08.139Z,1007.52
2018-05-15T02:36:08.155Z,1007.55
2018-05-15T02:37:08.206Z,1007.52
2018-05-15T02:38:08.194Z,1007.60
2018-05-15T02:39:08.218Z,1007.53
2018-05-15T02:40:08.232Z,1007.54
2018-05-15T02:41:08.257Z,1007.51
2018-05-15T02:42:08.273Z,1007.50
2018-05-15T02:43:08.296Z,1007.49
2018-05-15T02:44:08.309Z,1007.48
2018-05-15T02:45:08.332Z,1007.46
2018-05-15T02:46:08.352Z,1007.46
2018-05-15T02:47:08.373Z,1007.45
2018-05-15T02:48:08.391Z,1007.43
2018-05-15T02:49:08.411Z,1007.44
2018-05-15T02:50:08.431Z,1007.44
2018-05-15T02:51:08.456Z,1007.46
2018-05-15T02:52:08.476Z,1007.45
2018-05-15T02:53:08.493Z,1007.43
2018-05-15T02:54:08.512Z,1007.43
2018-05-15T02:56:08.550Z,1007.45
2018-05-15T02:57:08.567Z,1007.45
2018-05-15T02:58:08.594Z,1007.42
2018-05-15T02:59:08.633Z,1007.46
2018-05-15T03:00:08.642Z,1007.43
2018-05-15T03:01:08.653Z,1007.42
2018-05-15T03:02:08.668Z,1007.46
2018-05-15T03:03:08.687Z,1007.47
2018-05-15T03:04:08.698Z,1007.44
2018-05-15T03:05:08.725Z,1007.45
2018-05-15T03:06:08.748Z,1007.47
2018-05-15T03:07:08.764Z,1007.46
2018-05-15T03:08:08.785Z,1007.46
2018-05-15T03:09:08.807Z,1007.46
2018-05-15T03:10:08.831Z,1007.48
2018-05-15T03:11:08.844Z,1007.46
2018-05-15T03:12:08.864Z,1007.49
2018-05-15T03:13:08.883Z,1007.51
2018-05-15T03:14:08.906Z,1007.44
2018-05-15T03:15:08.921Z,1007.49
2018-05-15T03:16:08.939Z,1007.50
2018-05-15T03:17:08.962Z,1007.52
2018-05-15T03:18:08.983Z,1007.49
2018-05-15T03:19:09.003Z,1007.49
2018-05-15T03:20:09.023Z,1007.50
2018-05-15T03:21:09.041Z,1007.51
2018-05-15T03:22:09.067Z,1007.52
2018-05-15T03:23:09.085Z,1007.54
2018-05-15T03:24:09.101Z,1007.61
2018-05-15T03:25:09.124Z,1007.61
2018-05-15T03:26:09.140Z,1007.63
2018-05-15T03:27:09.160Z,1007.65
2018-05-15T03:28:09.184Z,1007.69
2018-05-15T03:29:09.199Z,1007.69
2018-05-15T03:30:09.219Z,1007.70
2018-05-15T03:31:09.244Z,1007.68
2018-05-15T03:32:09.257Z,1007.73
2018-05-15T03:33:09.278Z,1007.67
2018-05-15T03:34:09.300Z,1007.67
2018-05-15T03:35:09.317Z,1007.65
2018-05-15T03:36:09.336Z,1007.69
2018-05-15T03:37:09.356Z,1007.65
2018-05-15T03:38:09.376Z,1007.66
2018-05-15T03:39:09.399Z,1007.67
2018-05-15T03:40:09.414Z,1007.70
2018-05-15T03:41:09.435Z,1007.71
2018-05-15T03:42:09.457Z,1007.70
2018-05-15T03:43:09.476Z,1007.75
2018-05-15T03:44:09.500Z,1007.71
2018-05-15T03:45:09.515Z,1007.76
2018-05-15T03:46:09.533Z,1007.75
2018-05-15T03:47:09.557Z,1007.74
2018-05-15T03:48:09.572Z,1007.76
2018-05-15T03:49:09.593Z,1007.76
2018-05-15T03:50:09.615Z,1007.77
2018-05-15T03:51:09.632Z,1007.80
2018-05-15T03:52:09.654Z,1007.76
2018-05-15T03:53:09.672Z,1007.78
2018-05-15T03:54:09.690Z,1007.79
2018-05-15T03:55:09.712Z,1007.75
2018-05-15T03:56:09.731Z,1007.79
2018-05-15T03:57:09.751Z,1007.79
2018-05-15T03:58:09.770Z,1007.77
2018-05-15T03:59:09.792Z,1007.81
2018-05-15T04:00:09.812Z,1007.83
2018-05-15T04:01:09.835Z,1007.87
2018-05-15T04:02:09.849Z,1007.84
2018-05-15T04:03:09.870Z,1007.83
2018-05-15T04:04:09.891Z,1007.82
2018-05-15T04:05:09.907Z,1007.83
2018-05-15T04:06:09.928Z,1007.82
2018-05-15T04:07:09.949Z,1007.81
2018-05-15T04:08:09.966Z,1007.84
2018-05-15T04:09:09.987Z,1007.83
2018-05-15T04:10:10.007Z,1007.81
2018-05-15T04:11:10.098Z,1007.84
2018-05-15T04:12:10.046Z,1007.82
2018-05-15T04:13:10.059Z,1007.82
2018-05-15T04:14:10.086Z,1007.82
2018-05-15T04:15:10.112Z,1007.82
2018-05-15T04:16:10.209Z,1007.82
2018-05-15T04:17:10.145Z,1007.88
2018-05-15T04:18:10.166Z,1007.86
2018-05-15T04:19:10.184Z,1007.89
2018-05-15T04:20:10.204Z,1007.94
2018-05-15T04:21:10.225Z,1007.95
2018-05-15T04:22:10.244Z,1007.97
2018-05-15T04:23:10.265Z,1007.97
2018-05-15T04:24:10.286Z,1007.89
2018-05-15T04:25:10.301Z,1007.90
2018-05-15T04:26:10.325Z,1007.91
2018-05-15T04:27:10.343Z,1007.95
2018-05-15T04:28:10.391Z,1007.96
2018-05-15T04:29:10.381Z,1007.97
2018-05-15T04:30:10.404Z,1008.00
2018-05-15T04:31:10.419Z,1007.99
2018-05-15T04:32:10.443Z,1007.96
2018-05-15T04:33:10.459Z,1007.98
2018-05-15T04:34:10.484Z,1007.93
2018-05-15T04:35:10.554Z,1007.94
2018-05-15T04:36:10.516Z,1008.00
2018-05-15T04:37:10.538Z,1008.01
2018-05-15T04:38:10.558Z,1008.10
2018-05-15T04:39:10.577Z,1008.13
2018-05-15T04:40:10.599Z,1008.19
2018-05-15T04:41:10.618Z,1008.21
2018-05-15T04:42:10.641Z,1008.23
2018-05-15T04:43:10.658Z,1008.23
2018-05-15T04:44:10.674Z,1008.16
2018-05-15T04:45:10.696Z,1008.14
2018-05-15T04:46:10.717Z,1008.08
2018-05-15T04:47:10.734Z,1008.05
2018-05-15T04:48:10.758Z,1008.07
2018-05-15T04:49:10.775Z,1008.10
2018-05-15T04:50:10.793Z,1008.10
2018-05-15T04:51:10.817Z,1008.15
2018-05-15T04:52:10.833Z,1008.20
2018-05-15T04:53:10.853Z,1008.17
2018-05-15T04:54:10.879Z,1008.21
2018-05-15T04:55:10.896Z,1008.19
2018-05-15T04:56:10.911Z,1008.18
2018-05-15T04:57:10.933Z,1008.21
2018-05-15T04:58:10.951Z,1008.21
2018-05-15T04:59:10.977Z,1008.25
2018-05-15T05:00:10.991Z,1008.22
2018-05-15T05:01:11.013Z,1008.23
2018-05-15T05:02:11.031Z,1008.27
2018-05-15T05:03:11.050Z,1008.22
2018-05-15T05:04:11.073Z,1008.20
2018-05-15T05:05:11.091Z,1008.16
2018-05-15T05:06:11.110Z,1008.18
2018-05-15T05:07:11.131Z,1008.22
2018-05-15T05:08:11.148Z,1008.22
2018-05-15T05:09:11.168Z,1008.18
2018-05-15T05:10:11.195Z,1008.20
2018-05-15T05:11:11.212Z,1008.24
2018-05-15T05:12:11.230Z,1008.27
2018-05-15T05:13:11.247Z,1008.27
2018-05-15T05:14:11.266Z,1008.26
2018-05-15T05:15:11.287Z,1008.22
2018-05-15T05:16:11.310Z,1008.22
2018-05-15T05:17:11.326Z,1008.21
2018-05-15T05:18:11.354Z,1008.21
2018-05-15T05:19:11.366Z,1008.24
2018-05-15T05:20:11.388Z,1008.22
2018-05-15T05:21:11.406Z,1008.23
2018-05-15T05:22:11.424Z,1008.21
2018-05-15T05:23:11.454Z,1008.23
2018-05-15T05:24:11.464Z,1008.26
2018-05-15T05:25:11.485Z,1008.28
2018-05-15T05:26:11.503Z,1008.31
2018-05-15T05:27:11.536Z,1008.33
2018-05-15T05:28:11.547Z,1008.34
2018-05-15T05:29:11.563Z,1008.37
2018-05-15T05:30:11.581Z,1008.35
2018-05-15T05:31:11.605Z,1008.41
2018-05-15T05:32:11.619Z,1008.40
2018-05-15T05:33:11.660Z,1008.35
2018-05-15T05:34:11.662Z,1008.39
2018-05-15T05:35:11.680Z,1008.37
2018-05-15T05:36:11.701Z,1008.39
2018-05-15T05:37:11.720Z,1008.39
2018-05-15T05:38:11.739Z,1008.40
2018-05-15T05:39:11.766Z,1008.44
2018-05-15T05:40:11.861Z,1008.48
2018-05-15T05:41:11.798Z,1008.50
2018-05-15T05:42:11.818Z,1008.49
2018-05-15T05:43:11.837Z,1008.51
2018-05-15T05:44:11.858Z,1008.52
2018-05-15T05:45:11.877Z,1008.53
2018-05-15T05:46:11.897Z,1008.57
2018-05-15T05:47:11.919Z,1008.62
2018-05-15T05:48:11.934Z,1008.64
2018-05-15T05:49:11.957Z,1008.60
2018-05-15T05:50:11.975Z,1008.60
2018-05-15T05:51:11.993Z,1008.63
2018-05-15T05:52:12.020Z,1008.61
2018-05-15T05:53:12.035Z,1008.63
2018-05-15T05:54:12.052Z,1008.64
2018-05-15T05:55:12.074Z,1008.67
2018-05-15T05:56:12.093Z,1008.71
2018-05-15T05:57:12.113Z,1008.72
2018-05-15T05:58:12.132Z,1008.72
2018-05-15T05:59:12.152Z,1008.73
2018-05-15T06:00:12.172Z,1008.72
2018-05-15T06:01:12.192Z,1008.71
2018-05-15T06:02:12.211Z,1008.75
2018-05-15T06:03:12.232Z,1008.75
2018-05-15T06:04:12.249Z,1008.73
2018-05-15T06:05:12.272Z,1008.75
2018-05-15T06:06:12.290Z,1008.75
2018-05-15T06:07:12.311Z,1008.73
2018-05-15T06:08:12.335Z,1008.69
2018-05-15T06:09:12.350Z,1008.75
2018-05-15T06:10:12.375Z,1008.76
2018-05-15T06:11:12.394Z,1008.84
2018-05-15T06:12:12.407Z,1008.80
2018-05-15T06:13:12.428Z,1008.78
2018-05-15T06:14:12.467Z,1008.83
2018-05-15T06:15:12.467Z,1008.82
2018-05-15T06:16:12.495Z,1008.77
2018-05-15T06:17:12.507Z,1008.83
2018-05-15T06:18:12.526Z,1008.81
2018-05-15T06:19:12.551Z,1008.84
2018-05-15T06:20:12.565Z,1008.88
2018-05-15T06:21:12.586Z,1008.88
2018-05-15T06:22:12.607Z,1008.87
2018-05-15T06:23:12.625Z,1008.88
2018-05-15T06:24:12.647Z,1008.87
2018-05-15T06:25:12.663Z,1008.88
2018-05-15T06:26:12.686Z,1008.93
2018-05-15T06:27:12.709Z,1008.91
2018-05-15T06:28:12.721Z,1008.94
2018-05-15T06:29:12.744Z,1008.91
2018-05-15T06:30:12.764Z,1008.92
2018-05-15T06:31:12.784Z,1008.92
2018-05-15T06:32:12.806Z,1008.93
2018-05-15T06:33:12.821Z,1008.98
2018-05-15T06:34:12.841Z,1008.94
2018-05-15T06:35:12.862Z,1008.96
2018-05-15T06:36:12.883Z,1008.97
2018-05-15T06:37:12.906Z,1008.95
2018-05-15T06:38:12.923Z,1008.94
2018-05-15T06:39:12.939Z,1008.96
2018-05-15T06:40:12.963Z,1008.99
2018-05-15T06:41:12.978Z,1009.00
2018-05-15T06:42:13.000Z,1008.97
2018-05-15T06:43:13.029Z,1009.00
2018-05-15T06:44:13.038Z,1008.98
2018-05-15T06:45:13.060Z,1008.92
2018-05-15T06:46:13.079Z,1008.93
2018-05-15T06:47:13.097Z,1008.95
2018-05-15T06:48:13.121Z,1008.93
2018-05-15T06:49:13.136Z,1008.92
2018-05-15T06:50:13.164Z,1008.94
2018-05-15T06:51:13.178Z,1008.91
2018-05-15T06:52:13.196Z,1008.96
2018-05-15T06:53:13.219Z,1008.93
2018-05-15T06:54:13.237Z,1008.93
2018-05-15T06:55:13.256Z,1008.95
2018-05-15T06:56:13.279Z,1008.93
2018-05-15T06:57:13.294Z,1008.98
2018-05-15T06:58:13.316Z,1008.97
2018-05-15T06:59:13.337Z,1009.01
2018-05-15T07:00:13.353Z,1009.03
2018-05-15T07:01:13.374Z,1009.03
2018-05-15T07:02:13.392Z,1009.03
2018-05-15T07:03:13.412Z,1009.05
2018-05-15T07:04:13.448Z,1009.07
2018-05-15T07:05:13.452Z,1009.03
2018-05-15T07:06:13.472Z,1009.07
2018-05-15T07:07:13.492Z,1009.08
2018-05-15T07:08:13.510Z,1009.05
2018-05-15T07:09:13.531Z,1009.05
2018-05-15T07:10:13.550Z,1009.03
2018-05-15T07:11:13.569Z,1009.03
2018-05-15T07:12:13.593Z,1009.07
2018-05-15T07:13:13.607Z,1009.07
2018-05-15T07:14:13.629Z,1009.06
2018-05-15T07:15:13.651Z,1009.02
2018-05-15T07:16:13.670Z,1009.06
2018-05-15T07:17:13.689Z,1009.04
2018-05-15T07:18:13.712Z,1009.05
2018-05-15T07:19:13.768Z,1009.04
2018-05-15T07:20:13.750Z,1009.08
2018-05-15T07:21:13.768Z,1009.07
2018-05-15T07:22:13.791Z,1009.09
2018-05-15T07:23:13.808Z,1009.08
2018-05-15T07:24:13.824Z,1009.11
2018-05-15T07:25:13.846Z,1009.06
2018-05-15T07:26:13.866Z,1009.10
2018-05-15T07:27:13.894Z,1009.10
2018-05-15T07:28:13.907Z,1009.09
2018-05-15T07:29:13.925Z,1009.12
2018-05-15T07:30:13.950Z,1009.13
2018-05-15T07:31:13.965Z,1009.10
2018-05-15T07:32:13.983Z,1009.14
2018-05-15T07:33:14.092Z,1009.17
2018-05-15T07:34:14.024Z,1009.13
2018-05-15T07:35:14.043Z,1009.17
2018-05-15T07:36:14.065Z,1009.13
2018-05-15T07:37:14.083Z,1009.14
2018-05-15T07:38:14.104Z,1009.12
2018-05-15T07:39:14.124Z,1009.16
2018-05-15T07:40:14.176Z,1009.10
2018-05-15T07:41:14.161Z,1009.10
2018-05-15T07:42:14.185Z,1009.10
2018-05-15T07:43:14.200Z,1009.12
2018-05-15T07:44:14.224Z,1009.09
2018-05-15T07:45:14.242Z,1009.09
2018-05-15T07:46:14.261Z,1009.14
2018-05-15T07:47:14.280Z,1009.11
2018-05-15T07:48:14.304Z,1009.10
2018-05-15T07:49:14.320Z,1009.09
2018-05-15T07:50:14.340Z,1009.06
2018-05-15T07:51:14.360Z,1009.11
2018-05-15T07:52:14.382Z,1009.08
2018-05-15T07:53:14.396Z,1009.07
2018-05-15T07:54:14.418Z,1009.07
2018-05-15T07:55:14.440Z,1009.07
2018-05-15T07:56:14.457Z,1009.06
2018-05-15T07:57:14.477Z,1009.06
2018-05-15T07:58:14.496Z,1009.09
2018-05-15T07:59:14.516Z,1009.04
2018-05-15T08:00:14.541Z,1009.08
2018-05-15T08:01:14.556Z,1009.10
2018-05-15T08:02:14.575Z,1009.11
2018-05-15T08:03:14.594Z,1009.12
2018-05-15T08:04:14.614Z,1009.16
2018-05-15T08:05:14.635Z,1009.15
2018-05-15T08:06:14.654Z,1009.12
2018-05-15T08:07:14.676Z,1009.11
2018-05-15T08:08:14.696Z,1009.15
2018-05-15T08:09:14.712Z,1009.13
2018-05-15T08:10:14.734Z,1009.11
2018-05-15T08:11:14.753Z,1009.13
2018-05-15T08:12:14.771Z,1009.10
2018-05-15T08:13:14.791Z,1009.11
2018-05-15T08:14:14.815Z,1009.12
2018-05-15T08:15:14.825Z,1009.09
2018-05-15T08:16:14.861Z,1009.11
2018-05-15T08:17:14.872Z,1009.06
2018-05-15T08:18:14.890Z,1009.09
2018-05-15T08:19:14.914Z,1009.07
2018-05-15T08:20:14.927Z,1009.12
2018-05-15T08:21:14.951Z,1009.12
2018-05-15T08:22:15.047Z,1009.12
2018-05-15T08:23:14.989Z,1009.12
2018-05-15T08:24:15.010Z,1009.09
2018-05-15T08:25:15.030Z,1009.09
2018-05-15T08:26:15.049Z,1009.11
2018-05-15T08:27:15.068Z,1009.14
2018-05-15T08:28:15.090Z,1009.18
2018-05-15T08:29:15.107Z,1009.17
2018-05-15T08:30:15.128Z,1009.23
2018-05-15T08:31:15.145Z,1009.24
2018-05-15T08:32:15.169Z,1009.21
2018-05-15T08:33:15.188Z,1009.21
2018-05-15T08:34:15.206Z,1009.26
2018-05-15T08:35:15.225Z,1009.24
2018-05-15T08:36:15.243Z,1009.27
2018-05-15T08:37:15.352Z,1009.32
2018-05-15T08:38:15.284Z,1009.26
2018-05-15T08:39:15.308Z,1009.27
2018-05-15T08:40:15.330Z,1009.27
2018-05-15T08:41:15.343Z,1009.26
2018-05-15T08:42:15.364Z,1009.25
2018-05-15T08:43:15.387Z,1009.24
2018-05-15T08:44:15.401Z,1009.22
2018-05-15T08:45:15.489Z,1009.23
2018-05-15T08:46:15.445Z,1009.22
2018-05-15T08:47:15.461Z,1009.20
2018-05-15T08:48:15.482Z,1009.21
2018-05-15T08:49:15.501Z,1009.18
2018-05-15T08:50:15.521Z,1009.21
2018-05-15T08:51:15.541Z,1009.21
2018-05-15T08:52:15.558Z,1009.17
2018-05-15T08:53:15.580Z,1009.18
2018-05-15T08:54:15.600Z,1009.19
2018-05-15T08:55:15.622Z,1009.24
2018-05-15T08:56:15.639Z,1009.23
2018-05-15T08:57:15.684Z,1009.18
2018-05-15T08:58:15.679Z,1009.17
2018-05-15T08:59:15.700Z,1009.18
2018-05-15T09:00:15.882Z,1009.17
2018-05-15T09:01:15.821Z,1009.17
2018-05-15T09:02:15.759Z,1009.15
2018-05-15T09:03:15.780Z,1009.16
2018-05-15T09:04:15.799Z,1009.12
2018-05-15T09:05:15.816Z,1009.13
2018-05-15T09:06:15.838Z,1009.21
2018-05-15T09:07:15.854Z,1009.15
2018-05-15T09:08:15.873Z,1009.18
2018-05-15T09:09:15.895Z,1009.19
2018-05-15T09:10:15.915Z,1009.17
2018-05-15T09:11:15.936Z,1009.16
2018-05-15T09:12:15.956Z,1009.16
2018-05-15T09:13:16.007Z,1009.15
2018-05-15T09:14:15.996Z,1009.09
2018-05-15T09:15:16.015Z,1009.07
2018-05-15T09:16:16.031Z,1009.07
2018-05-15T09:17:16.054Z,1009.11
2018-05-15T09:18:16.165Z,1009.06
2018-05-15T09:19:16.150Z,1009.09
2018-05-15T09:20:16.113Z,1009.13
2018-05-15T09:21:16.136Z,1009.10
2018-05-15T09:22:16.153Z,1009.12
2018-05-15T09:23:16.176Z,1009.09
2018-05-15T09:24:16.193Z,1009.10
2018-05-15T09:25:16.212Z,1009.11
2018-05-15T09:26:16.232Z,1009.10
2018-05-15T09:27:16.251Z,1009.12
2018-05-15T09:28:16.269Z,1009.06
2018-05-15T09:29:16.303Z,1009.12
2018-05-15T09:30:16.309Z,1009.11
2018-05-15T09:31:16.328Z,1009.12
2018-05-15T09:32:16.349Z,1009.12
2018-05-15T09:33:16.369Z,1009.10
2018-05-15T09:34:16.389Z,1009.07
2018-05-15T09:35:16.408Z,1009.09
2018-05-15T09:36:16.424Z,1009.04
2018-05-15T09:37:16.448Z,1009.08
2018-05-15T09:38:16.467Z,1009.08
2018-05-15T09:39:16.491Z,1009.10
2018-05-15T09:40:16.507Z,1009.10
2018-05-15T09:41:16.527Z,1009.17
2018-05-15T09:42:16.546Z,1009.18
2018-05-15T09:43:16.566Z,1009.13
2018-05-15T09:44:16.584Z,1009.10
2018-05-15T09:45:16.606Z,1009.09
2018-05-15T09:46:16.627Z,1009.09
2018-05-15T09:47:16.648Z,1009.11
2018-05-15T09:48:16.662Z,1009.11
2018-05-15T09:49:16.684Z,1009.10
2018-05-15T09:50:16.704Z,1009.08
2018-05-15T09:51:16.725Z,1009.09
2018-05-15T09:52:16.858Z,1009.05
2018-05-15T09:53:16.762Z,1008.98
2018-05-15T09:54:16.783Z,1009.08
2018-05-15T09:55:16.801Z,1009.07
2018-05-15T09:56:16.818Z,1009.06
2018-05-15T09:57:16.844Z,1009.03
2018-05-15T09:58:16.860Z,1009.01
2018-05-15T09:59:16.886Z,1009.00
2018-05-15T10:00:16.899Z,1009.03
2018-05-15T10:01:16.917Z,1008.99
2018-05-15T10:02:16.938Z,1009.00
2018-05-15T10:03:16.961Z,1009.04
2018-05-15T10:04:16.978Z,1009.00
2018-05-15T10:05:16.999Z,1009.01
2018-05-15T10:06:17.020Z,1009.06
2018-05-15T10:07:17.036Z,1009.04
2018-05-15T10:08:17.061Z,1009.05
2018-05-15T10:09:17.076Z,1009.06
2018-05-15T10:10:17.098Z,1009.06
2018-05-15T10:11:17.117Z,1009.09
2018-05-15T10:12:17.133Z,1009.05
2018-05-15T10:13:17.157Z,1009.06
2018-05-15T10:14:17.228Z,1009.03
2018-05-15T10:15:17.197Z,1009.01
2018-05-15T10:16:17.215Z,1009.05
2018-05-15T10:17:17.233Z,1008.98
2018-05-15T10:18:17.254Z,1008.98
2018-05-15T10:19:17.274Z,1009.03
2018-05-15T10:20:17.290Z,1008.99
2018-05-15T10:21:17.313Z,1009.00
2018-05-15T10:22:17.333Z,1008.96
2018-05-15T10:23:17.352Z,1008.93
2018-05-15T10:24:17.380Z,1009.05
2018-05-15T10:25:17.390Z,1008.95
2018-05-15T10:26:17.458Z,1008.96
2018-05-15T10:27:17.429Z,1008.95
2018-05-15T10:28:17.450Z,1008.97
2018-05-15T10:29:17.470Z,1008.92
2018-05-15T10:30:17.490Z,1008.96
2018-05-15T10:31:17.510Z,1008.97
2018-05-15T10:32:17.574Z,1008.96
2018-05-15T10:33:17.548Z,1008.97
2018-05-15T10:34:17.565Z,1009.01
2018-05-15T10:35:17.619Z,1009.03
2018-05-15T10:36:17.606Z,1009.03
2018-05-15T10:37:17.628Z,1008.98
2018-05-15T10:38:17.648Z,1009.04
2018-05-15T10:39:17.670Z,1009.02
2018-05-15T10:40:17.688Z,1009.01
2018-05-15T10:41:17.705Z,1009.02
2018-05-15T10:42:17.742Z,1008.99
2018-05-15T10:43:17.744Z,1009.02
2018-05-15T10:44:17.764Z,1008.93
2018-05-15T10:45:17.786Z,1008.96
2018-05-15T10:46:17.806Z,1008.96
2018-05-15T10:47:17.829Z,1008.98
2018-05-15T10:48:17.851Z,1008.95
2018-05-15T10:49:17.863Z,1008.96
2018-05-15T10:50:17.887Z,1008.94
2018-05-15T10:51:17.904Z,1008.91
2018-05-15T10:52:17.920Z,1008.89
2018-05-15T10:53:17.941Z,1008.87
2018-05-15T10:54:17.960Z,1008.85
2018-05-15T10:55:17.980Z,1008.89
2018-05-15T10:56:18.004Z,1008.90
2018-05-15T10:57:18.019Z,1008.90
2018-05-15T10:58:18.040Z,1008.85
2018-05-15T10:59:18.060Z,1008.85
2018-05-15T11:00:18.078Z,1008.85
2018-05-15T11:01:18.099Z,1008.85
2018-05-15T11:02:18.118Z,1008.87
2018-05-15T11:03:18.138Z,1008.88
2018-05-15T11:04:18.160Z,1008.85
2018-05-15T11:05:18.177Z,1008.84
2018-05-15T11:06:18.235Z,1008.83
2018-05-15T11:07:18.218Z,1008.76
2018-05-15T11:08:18.235Z,1008.81
2018-05-15T11:09:18.256Z,1008.77
2018-05-15T11:10:18.275Z,1008.78
2018-05-15T11:11:18.297Z,1008.78
2018-05-15T11:12:18.318Z,1008.76
2018-05-15T11:13:18.337Z,1008.80
2018-05-15T11:14:18.361Z,1008.79
2018-05-15T11:15:18.374Z,1008.77
2018-05-15T11:16:18.509Z,1008.70
2018-05-15T11:17:18.412Z,1008.72
2018-05-15T11:18:18.432Z,1008.71
2018-05-15T11:19:18.450Z,1008.77
2018-05-15T11:20:18.474Z,1008.75
2018-05-15T11:21:18.493Z,1008.72
2018-05-15T11:22:18.514Z,1008.73
2018-05-15T11:23:18.536Z,1008.77
2018-05-15T11:24:18.549Z,1008.71
2018-05-15T11:25:18.571Z,1008.72
2018-05-15T11:26:18.583Z,1008.68
2018-05-15T11:27:18.608Z,1008.70
2018-05-15T11:28:18.632Z,1008.75
2018-05-15T11:29:18.648Z,1008.77
2018-05-15T11:30:18.673Z,1008.74
2018-05-15T11:31:18.691Z,1008.76
2018-05-15T11:32:18.706Z,1008.78
2018-05-15T11:33:18.725Z,1008.77
2018-05-15T11:34:18.753Z,1008.81
2018-05-15T11:35:18.770Z,1008.77
2018-05-15T11:36:18.791Z,1008.77
2018-05-15T11:37:18.806Z,1008.78
2018-05-15T11:38:18.825Z,1008.69
2018-05-15T11:39:18.857Z,1008.68
2018-05-15T11:40:18.863Z,1008.68
2018-05-15T11:41:18.884Z,1008.75
2018-05-15T11:42:18.903Z,1008.74
2018-05-15T11:43:18.919Z,1008.72
2018-05-15T11:44:18.943Z,1008.74
2018-05-15T11:45:18.963Z,1008.74
2018-05-15T11:46:18.983Z,1008.74
2018-05-15T11:47:19.108Z,1008.73
2018-05-15T11:48:19.532Z,1008.75
2018-05-15T11:49:19.722Z,1008.78
2018-05-15T11:50:19.783Z,1008.81
2018-05-15T11:51:19.579Z,1008.77
2018-05-15T11:52:20.073Z,1008.78
2018-05-15T11:53:19.326Z,1008.74
2018-05-15T11:54:19.140Z,1008.75
2018-05-15T11:55:19.162Z,1008.75
2018-05-15T11:56:19.181Z,1008.75
2018-05-15T11:57:19.198Z,1008.73
2018-05-15T11:58:19.233Z,1008.73
2018-05-15T11:59:19.238Z,1008.71
2018-05-15T12:00:19.258Z,1008.68
2018-05-15T12:01:19.278Z,1008.67
2018-05-15T12:02:19.331Z,1008.66
2018-05-15T12:03:19.320Z,1008.64
2018-05-15T12:04:19.338Z,1008.64
2018-05-15T12:05:19.358Z,1008.72
2018-05-15T12:06:19.374Z,1008.64